• Join FlightAware (Why Join?)
  • Login
  • US Flag 
04:43AM EDT


 

Airport Tracker/Info


-or-


 

Live Flight TrackerFlight Track Log ✈ CES5522 ✈ 04-Aug-2013 ✈ ZSQD / TAO - ZSPD / PVG

Flight Track Log - Related Links

Times and Time Zones

All times are in EDT time to prevent confusion due to time zone crossing. See the CES5522 flight status page for this flight to view local times or setup timezone preferences in your user account.

Time Position Orientation Groundspeed Altitude Reporting Facility
EDT Latitude Longitude Course Direction KTS MPH feet Rate Location/Type
08:49AM 34.8282 120.7904 167° South  Level Estimated
08:50AM 34.7383 120.8159 167° South  Level Estimated
08:51AM 34.6483 120.8413 167° South  Level Estimated
08:52AM 34.5584 120.8667 167° South  Level Estimated
08:53AM 34.4685 120.8921 167° South  Level Estimated
08:54AM 34.3785 120.9174 167° South  Level Estimated
08:55AM 34.2886 120.9426 167° South  Level Estimated
08:56AM 34.1986 120.9678 167° South  Level Estimated
08:57AM 34.1087 120.9929 167° South  Level Estimated
08:58AM 34.0187 121.0180 167° South  Level Estimated
08:59AM 33.9288 121.0430 167° South  Level Estimated
09:00AM 33.8388 121.0679 167° South  Level Estimated
09:01AM 33.7488 121.0929 167° South  Level Estimated
09:02AM 33.6589 121.1177 167° South  Level Estimated
09:03AM 33.5689 121.1425 167° South  Level Estimated
09:04AM 33.4789 121.1673 167° South  Level Estimated
09:05AM 33.3889 121.1920 167° South  Level Estimated
09:06AM 33.2989 121.2167 167° South  Level Estimated
09:07AM 33.2089 121.2413 167° South  Level Estimated
09:08AM 33.1189 121.2658 167° South  Level Estimated
09:09AM 33.0289 121.2903 167° South  Level Estimated
09:10AM 32.9389 121.3148 167° South  Level Estimated
09:11AM 32.8488 121.3392 167° South  Level Estimated
09:12AM 32.7588 121.3635 167° South  Level Estimated
09:13AM 32.6688 121.3878 167° South  Level Estimated
09:14AM 32.5787 121.4121 167° South  Level Estimated
09:15AM 32.4887 121.4363 167° South  Level Estimated
09:16AM 32.3986 121.4604 167° South  Level Estimated
09:17AM 32.3086 121.4846 167° South  Level Estimated
09:18AM 32.2185 121.5086 167° South  Level Estimated
09:19AM 32.1285 121.5326 167° South  Level Estimated
09:20AM 32.0384 121.5566 167° South  Level Estimated
09:21AM 31.9483 121.5805 167° South  Level Estimated
09:22AM 31.8583 121.6044 167° South  Level Estimated
09:23AM 31.7682 121.6282 167° South  Level Estimated
09:24AM 31.6781 121.6520 167° South  Level Estimated
09:25AM 31.5880 121.6758 167° South  Level Estimated
09:26AM 31.4979 121.6994 167° South  Level Estimated
09:27AM 31.4078 121.7231 167° South  Level Estimated
09:28AM 31.3177 121.7467 167° South  Level Estimated
09:29AM 31.2276 121.7702 167° South  Level Estimated
09:30AM 31.1428 121.7924 167° South  Level Estimated
09:31AM 31.1428 121.7924 221° Southwest  Level Estimated
09:32AM 31.1428 121.7924 221° Southwest  Level Estimated
09:33AM 31.1428 121.7924 221° Southwest  Level Estimated
09:34AM 31.1428 121.7924 221° Southwest  Level Estimated
09:35AM 31.1428 121.7924 221° Southwest  Level Estimated
09:36AM 31.1428 121.7924 221° Southwest  Level Estimated
09:37AM 31.1428 121.7924 221° Southwest  Level Estimated
09:38AM 31.1428 121.7924 221° Southwest  Level Estimated
09:39AM 31.1428 121.7924 221° Southwest  Level Estimated
09:40AM 31.1428 121.7924 221° Southwest  Level Estimated
09:41AM 31.1428 121.7924 221° Southwest  Level Estimated
09:42AM 31.1428 121.7924 221° Southwest  Level Estimated
09:43AM 31.1428 121.7924 221° Southwest  Level Estimated
09:44AM 31.1428 121.7924 221° Southwest  Level Estimated
09:45AM 31.1428 121.7924 221° Southwest  Level Estimated
09:46AM 31.1428 121.7924 221° Southwest  Level Estimated